Elettra — H9AK — position and weather

sailwx.info

Track history (hours):
 
Tides and Currents Weather Stations Pressure Air Temp Water Temp Dewpoint Dewpoint Depression Visibility Wind Speed Wind Dir Waves Ship Positions

Elettra

Last reported at 2016-May-31 04:33 UTC. Time now 2016-May-31 14:21 UTC.
Position S 26°52' E 153°52'.

Length 254 m; draft 14.5 m.

Type: Cargo ship. MMSI: 371188000.

Date/timePositionNaut miles runAvg speedWind from/ knotsBaromVisibWave heightAir tempDewpointWater temp
2016-May-31 04:33S 26°52' E 153°52'1111.0
2016-May-31 03:33S 27°03' E 153°53'3912.7
2016-May-31 00:28S 27°43' E 153°52'29312.8
2016-May-30 01:33S 32°31' E 152°48'1211.0
2016-May-30 00:28S 32°41' E 152°42'1111.8
2016-May-29 23:33S 32°47' E 152°31'1211.7
2016-May-29 22:33S 32°53' E 152°19'1211.9
2016-May-29 21:33S 32°56' E 152°05'1110.9
2016-May-29 20:33S 32°56' E 151°52'5 5.1
2016-May-29 19:33S 32°54' E 151°46'2 0.1
2016-May-29 06:31S 32°53' E 151°45'0 0.0
2016-May-29 05:28S 32°53' E 151°45'0 0.0
2016-May-29 04:22S 32°53' E 151°45'0 0.0
2016-May-29 03:28S 32°53' E 151°45'0 0.0
2016-May-29 02:28S 32°53' E 151°45'0 0.0
2016-May-29 01:28S 32°53' E 151°45'0 0.0
2016-May-29 00:31S 32°53' E 151°45'0 0.0
2016-May-28 23:28S 32°53' E 151°45'0 0.0
2016-May-28 22:28S 32°53' E 151°45'0 0.0
2016-May-28 21:28S 32°53' E 151°45'0 0.0
2016-May-28 19:28S 32°53' E 151°45'0 0.0
2016-May-28 18:10S 32°53' E 151°45'0 0.0
2016-May-28 17:28S 32°53' E 151°45'1 1.5
2016-May-28 16:33S 32°54' E 151°46'3 3.4
2016-May-28 15:33S 32°54' E 151°50'7 7.2
2016-May-28 14:33S 32°60' E 151°56'7 7.1
2016-May-28 13:33S 33°02' E 152°04'3 3.1
2016-May-28 12:28S 33°03' E 152°07'2 1.8
2016-May-28 11:31S 33°04' E 152°05'2 1.9
2016-May-28 10:31S 33°04' E 152°03'2 2.1
2016-May-28 09:31S 33°05' E 152°01'2 2.0
2016-May-28 08:31S 33°06' E 151°59'4 4.4
2016-May-28 07:33S 33°02' E 151°59'7 7.2
2016-May-28 06:33S 32°56' E 152°04'8 8.4
2016-May-28 05:33S 32°53' E 152°13'1212.4
2016-May-28 04:33S 32°44' E 152°24'1211.9
2016-May-28 03:33S 32°35' E 152°34'1212.0
2016-May-28 02:33S 32°26' E 152°42'  
Track history (hours):
 
Tides and Currents Weather Stations Pressure Air Temp Water Temp Dewpoint Dewpoint Depression Visibility Wind Speed Wind Dir Waves Ship Positions

Elettra

Last reported at 2016-May-31 04:33 UTC. Time now 2016-May-31 14:21 UTC.
Position S 26°52' E 153°52'.

Length 254 m; draft 14.5 m.

Type: Cargo ship. MMSI: 371188000.

Date/timePositionNaut miles runAvg speedWind from/ knotsBaromVisibWave heightAir tempDewpointWater temp
2016-May-31 04:33S 26°52' E 153°52'1111.0
2016-May-31 03:33S 27°03' E 153°53'3912.7
2016-May-31 00:28S 27°43' E 153°52'29312.8
2016-May-30 01:33S 32°31' E 152°48'1211.0
2016-May-30 00:28S 32°41' E 152°42'1111.8
2016-May-29 23:33S 32°47' E 152°31'1211.7
2016-May-29 22:33S 32°53' E 152°19'1211.9
2016-May-29 21:33S 32°56' E 152°05'1110.9
2016-May-29 20:33S 32°56' E 151°52'5 5.1
2016-May-29 19:33S 32°54' E 151°46'2 0.1
2016-May-29 06:31S 32°53' E 151°45'0 0.0
2016-May-29 05:28S 32°53' E 151°45'0 0.0
2016-May-29 04:22S 32°53' E 151°45'0 0.0
2016-May-29 03:28S 32°53' E 151°45'0 0.0
2016-May-29 02:28S 32°53' E 151°45'0 0.0
2016-May-29 01:28S 32°53' E 151°45'0 0.0
2016-May-29 00:31S 32°53' E 151°45'0 0.0
2016-May-28 23:28S 32°53' E 151°45'0 0.0
2016-May-28 22:28S 32°53' E 151°45'0 0.0
2016-May-28 21:28S 32°53' E 151°45'0 0.0
2016-May-28 19:28S 32°53' E 151°45'0 0.0
2016-May-28 18:10S 32°53' E 151°45'0 0.0
2016-May-28 17:28S 32°53' E 151°45'1 1.5
2016-May-28 16:33S 32°54' E 151°46'3 3.4
2016-May-28 15:33S 32°54' E 151°50'7 7.2
2016-May-28 14:33S 32°60' E 151°56'7 7.1
2016-May-28 13:33S 33°02' E 152°04'3 3.1
2016-May-28 12:28S 33°03' E 152°07'2 1.8
2016-May-28 11:31S 33°04' E 152°05'2 1.9
2016-May-28 10:31S 33°04' E 152°03'2 2.1
2016-May-28 09:31S 33°05' E 152°01'2 2.0
2016-May-28 08:31S 33°06' E 151°59'4 4.4
2016-May-28 07:33S 33°02' E 151°59'7 7.2
2016-May-28 06:33S 32°56' E 152°04'8 8.4
2016-May-28 05:33S 32°53' E 152°13'1212.4
2016-May-28 04:33S 32°44' E 152°24'1211.9
2016-May-28 03:33S 32°35' E 152°34'1212.0
2016-May-28 02:33S 32°26' E 152°42'  

Dump ship's entire track history